This is the latest recevied weather packets stored in our database for station/object KI4HRG. If no packets are shown the sender has not sent any weather packets the latest 10 day(s).
| Time | Temp. | Humidity | Pressure | Rain* | Wind** | Luminosity | Snow |
|---|---|---|---|---|---|---|---|
| 1787673500 | 31.67° C | 53% | 1018.1 hPa | 0 mm | - | 719 W/m² | - |
| 1787673199 | 32.78° C | 52% | 1018.2 hPa | 0 mm | - | 746 W/m² | - |
| 1787672899 | 32.78° C | 52% | 1018.2 hPa | 0 mm | - | 757 W/m² | - |
| 1787672595 | 31.67° C | 54% | 1018.6 hPa | 0 mm | - | 754 W/m² | - |
| 1787672294 | 31.67° C | 53% | 1018.3 hPa | 0 mm | - | 761 W/m² | - |
| 1787671988 | 31.67° C | 55% | 1018.4 hPa | 0 mm | - | 748 W/m² | - |
| 1787671683 | 30.56° C | 55% | 1018.3 hPa | 0 mm | - | 691 W/m² | - |
| 1787671378 | 30.56° C | 55% | 1018.4 hPa | 0 mm | - | 701 W/m² | - |
| 1787671073 | 30.56° C | 55% | 1018.5 hPa | 0 mm | - | 682 W/m² | - |
| 1787670769 | 30.56° C | 56% | 1018.4 hPa | 0 mm | - | 616 W/m² | - |
| 1787670469 | 30.56° C | 59% | 1018.4 hPa | 0 mm | - | 626 W/m² | - |
| 1787670163 | 29.44° C | 60% | 1018.5 hPa | 0 mm | - | 602 W/m² | - |
| 1787669862 | 30° C | 60% | 1018.2 hPa | 0 mm | - | 598 W/m² | - |
| 1787669558 | 29.44° C | 62% | 1018.5 hPa | 0 mm | - | 579 W/m² | - |
| 1787669253 | 30° C | 61% | 1018.3 hPa | 0 mm | - | 579 W/m² | - |
| 1787668949 | 30° C | 62% | 1018.4 hPa | 0 mm | - | 557 W/m² | - |
| 1787668645 | 30° C | 62% | 1018.3 hPa | 0 mm | - | 573 W/m² | - |
| 1787668341 | 30° C | 62% | 1018.4 hPa | 0 mm | - | 607 W/m² | - |
| 1787668040 | 28.89° C | 66% | 1018.3 hPa | 0 mm | - | 536 W/m² | - |
| 1787667736 | 28.89° C | 65% | 1018.2 hPa | 0 mm | - | 492 W/m² | - |
| 1787667431 | 28.89° C | 66% | 1018.2 hPa | 0 mm | - | 494 W/m² | - |
| 1787667127 | 28.89° C | 67% | 1018.2 hPa | 0 mm | - | 465 W/m² | - |
| 1787666822 | 28.89° C | 67% | 1018.2 hPa | 0 mm | - | 423 W/m² | - |
| 1787666517 | 28.89° C | 67% | 1018.3 hPa | 0 mm | - | 379 W/m² | - |
| 1787666212 | 28.33° C | 69% | 1018 hPa | 0 mm | - | 342 W/m² | - |
* Rain latest hour (hover to see other rain measurements)
** Current wind speed in m/s (hover to see current wind gust speed)